Al Hoceima, Morocco
Current Conditions -  °F | °C
As of 1:00 PM on Wednesday 22 Oct 2014 (Local Time) from GMTA Reporting Station
Clear Clear  
Wind Chill: 26°   Ceiling: Unl
Heat Index: 27°   Visibility: 6mi
Dew Point: 18°   Wind: 7mph
Humidity: 61%   Direction: 360°N
Pressure: 30.18"   Gusts: NA
Location:  35.26°N, 3.94°W
Report Text: GMTA 221200Z 36006KT CAVOK 26/18 Q1022 NOSIG
Loading
Personal Weather Stations






























Interactive Weather Map
Tropical Storm Tracking
New forecast layout! Learn more

10-Day Weather Forecast

Advertisements
Track Severe Weather on mobile